createdAt,value
2018-03-04T00:00:01.260Z,0.59
2018-03-04T00:01:01.174Z,0.65
2018-03-04T00:02:01.089Z,0.60
2018-03-04T00:03:01.002Z,0.65
2018-03-04T00:04:00.914Z,0.66
2018-03-04T00:05:00.826Z,0.58
2018-03-04T00:06:00.799Z,0.52
2018-03-04T00:07:00.658Z,0.58
2018-03-04T00:08:00.572Z,0.56
2018-03-04T00:09:00.480Z,0.60
2018-03-04T00:10:00.405Z,0.60
2018-03-04T00:11:00.310Z,0.60
2018-03-04T00:12:00.221Z,0.59
2018-03-04T00:13:00.139Z,0.58
2018-03-04T00:14:00.109Z,0.62
2018-03-04T00:14:59.964Z,0.59
2018-03-04T00:15:59.875Z,0.62
2018-03-04T00:16:59.794Z,0.62
2018-03-04T00:17:59.703Z,0.52
2018-03-04T00:18:59.617Z,0.65
2018-03-04T00:19:59.535Z,0.60
2018-03-04T00:20:59.442Z,0.62
2018-03-04T00:21:59.360Z,0.66
2018-03-04T00:22:59.272Z,0.60
2018-03-04T00:23:59.183Z,0.60
2018-03-04T00:24:59.099Z,0.63
2018-03-04T00:25:59.013Z,0.59
2018-03-04T00:26:58.926Z,0.62
2018-03-04T00:27:58.838Z,0.55
2018-03-04T00:28:58.752Z,0.52
2018-03-04T00:29:58.667Z,0.50
2018-03-04T00:30:58.590Z,0.46
2018-03-04T00:31:58.494Z,0.49
2018-03-04T00:32:58.407Z,0.41
2018-03-04T00:33:58.321Z,0.47
2018-03-04T00:34:58.235Z,0.47
2018-03-04T00:35:58.150Z,0.55
2018-03-04T00:36:58.060Z,0.56
2018-03-04T00:37:57.976Z,0.59
2018-03-04T00:38:57.889Z,0.59
2018-03-04T00:39:57.801Z,0.58
2018-03-04T00:40:57.717Z,0.60
2018-03-04T00:41:57.628Z,0.56
2018-03-04T00:42:57.548Z,0.58
2018-03-04T00:43:57.455Z,0.59
2018-03-04T00:44:57.374Z,0.59
2018-03-04T00:45:57.283Z,0.62
2018-03-04T00:46:57.220Z,0.60
2018-03-04T00:47:57.152Z,0.56
2018-03-04T00:48:57.022Z,0.56
2018-03-04T00:49:56.938Z,0.58
2018-03-04T00:50:56.849Z,0.52
2018-03-04T00:51:56.766Z,0.56
2018-03-04T00:52:56.692Z,0.43
2018-03-04T00:53:56.591Z,0.43
2018-03-04T00:54:56.503Z,0.44
2018-03-04T00:55:56.418Z,0.47
2018-03-04T00:56:56.333Z,0.41
2018-03-04T00:57:56.248Z,0.47
2018-03-04T00:58:56.162Z,0.44
2018-03-04T00:59:56.073Z,0.47
2018-03-04T01:00:55.986Z,0.46
2018-03-04T01:01:55.897Z,0.47
2018-03-04T01:02:55.813Z,0.39
2018-03-04T01:03:55.727Z,0.46
2018-03-04T01:04:55.639Z,0.50
2018-03-04T01:05:55.555Z,0.46
2018-03-04T01:06:55.467Z,0.43
2018-03-04T01:07:55.381Z,0.43
2018-03-04T01:08:55.299Z,0.39
2018-03-04T01:09:55.206Z,0.47
2018-03-04T01:10:55.118Z,0.47
2018-03-04T01:11:55.058Z,0.44
2018-03-04T01:12:54.950Z,0.41
2018-03-04T01:13:54.861Z,0.49
2018-03-04T01:14:54.774Z,0.47
2018-03-04T01:15:54.690Z,0.39
2018-03-04T01:16:54.603Z,0.41
2018-03-04T01:17:54.513Z,0.41
2018-03-04T01:18:54.427Z,0.41
2018-03-04T01:19:54.339Z,0.44
2018-03-04T01:20:54.255Z,0.46
2018-03-04T01:21:54.166Z,0.40
2018-03-04T01:22:54.082Z,0.40
2018-03-04T01:23:53.995Z,0.44
2018-03-04T01:24:53.907Z,0.47
2018-03-04T01:25:53.823Z,0.44
2018-03-04T01:26:53.735Z,0.46
2018-03-04T01:27:53.648Z,0.44
2018-03-04T01:28:53.561Z,0.40
2018-03-04T01:29:53.477Z,0.49
2018-03-04T01:30:53.388Z,0.41
2018-03-04T01:31:53.305Z,0.40
2018-03-04T01:32:53.213Z,0.44
2018-03-04T01:33:53.142Z,0.44
2018-03-04T01:34:53.042Z,0.47
2018-03-04T01:35:52.953Z,0.40
2018-03-04T01:36:52.874Z,0.40
2018-03-04T01:37:52.784Z,0.41
2018-03-04T01:38:52.697Z,0.49
2018-03-04T01:39:52.609Z,0.43
2018-03-04T01:40:52.523Z,0.43
2018-03-04T01:41:52.435Z,0.47
2018-03-04T01:42:52.349Z,0.44
2018-03-04T01:43:52.264Z,0.44
2018-03-04T01:44:52.175Z,0.44
2018-03-04T01:45:52.092Z,0.46
2018-03-04T01:46:52.010Z,0.32
2018-03-04T01:47:51.916Z,0.40
2018-03-04T01:48:51.835Z,0.29
2018-03-04T01:49:51.746Z,0.37
2018-03-04T01:50:51.655Z,0.32
2018-03-04T01:51:51.569Z,0.37
2018-03-04T01:52:51.489Z,0.41
2018-03-04T01:53:51.397Z,0.44
2018-03-04T01:54:51.311Z,0.44
2018-03-04T01:55:51.224Z,0.34
2018-03-04T01:56:51.136Z,0.34
2018-03-04T01:57:51.052Z,0.44
2018-03-04T01:58:50.965Z,0.43
2018-03-04T01:59:50.881Z,0.41
2018-03-04T02:00:50.790Z,0.44
2018-03-04T02:01:50.707Z,0.46
2018-03-04T02:02:50.617Z,0.43
2018-03-04T02:03:50.529Z,0.40
2018-03-04T02:04:50.446Z,0.46
2018-03-04T02:05:50.358Z,0.41
2018-03-04T02:06:50.271Z,0.32
2018-03-04T02:07:50.182Z,0.29
2018-03-04T02:08:50.097Z,0.34
2018-03-04T02:09:50.010Z,0.29
2018-03-04T02:10:49.928Z,0.25
2018-03-04T02:11:49.836Z,0.28
2018-03-04T02:12:49.753Z,0.23
2018-03-04T02:13:49.664Z,0.28
2018-03-04T02:14:49.578Z,0.23
2018-03-04T02:15:49.489Z,0.26
2018-03-04T02:16:49.404Z,0.32
2018-03-04T02:17:49.317Z,0.37
2018-03-04T02:18:49.233Z,0.32
2018-03-04T02:19:49.144Z,0.28
2018-03-04T02:20:49.063Z,0.29
2018-03-04T02:21:48.976Z,0.34
2018-03-04T02:22:48.888Z,0.29
2018-03-04T02:23:48.798Z,0.29
2018-03-04T02:24:48.712Z,0.32
2018-03-04T02:25:48.627Z,0.26
2018-03-04T02:26:48.541Z,0.34
2018-03-04T02:27:48.462Z,0.23
2018-03-04T02:28:48.366Z,0.19
2018-03-04T02:29:48.284Z,0.26
2018-03-04T02:30:48.195Z,0.31
2018-03-04T02:31:48.106Z,0.19
2018-03-04T02:32:48.021Z,0.26
2018-03-04T02:33:47.932Z,0.26
2018-03-04T02:34:47.847Z,0.28
2018-03-04T02:35:47.757Z,0.21
2018-03-04T02:36:47.674Z,0.23
2018-03-04T02:37:47.588Z,0.23
2018-03-04T02:38:47.498Z,0.21
2018-03-04T02:39:47.413Z,0.19
2018-03-04T02:40:47.324Z,0.25
2018-03-04T02:41:47.240Z,0.15
2018-03-04T02:42:47.152Z,0.22
2018-03-04T02:43:47.063Z,0.18
2018-03-04T02:44:46.983Z,0.18
2018-03-04T02:45:46.892Z,0.23
2018-03-04T02:46:46.810Z,0.28
2018-03-04T02:47:46.717Z,0.23
2018-03-04T02:48:46.632Z,0.19
2018-03-04T02:49:46.545Z,0.16
2018-03-04T02:50:46.458Z,0.26
2018-03-04T02:51:46.370Z,0.18
2018-03-04T02:52:46.286Z,0.23
2018-03-04T02:53:46.196Z,0.15
2018-03-04T02:54:46.113Z,0.11
2018-03-04T02:55:46.026Z,0.12
2018-03-04T02:56:45.934Z,0.19
2018-03-04T02:57:45.852Z,0.15
2018-03-04T02:58:45.762Z,0.15
2018-03-04T02:59:45.675Z,0.22
2018-03-04T03:00:45.587Z,0.19
2018-03-04T03:01:45.505Z,0.22
2018-03-04T03:02:45.415Z,0.25
2018-03-04T03:03:45.329Z,0.26
2018-03-04T03:04:45.249Z,0.16
2018-03-04T03:05:45.157Z,0.15
2018-03-04T03:06:45.068Z,0.15
2018-03-04T03:07:44.983Z,0.11
2018-03-04T03:08:44.896Z,0.12
2018-03-04T03:09:44.810Z,0.15
2018-03-04T03:10:44.723Z,0.21
2018-03-04T03:11:44.635Z,0.16
2018-03-04T03:12:44.548Z,0.11
2018-03-04T03:13:44.464Z,0.15
2018-03-04T03:14:44.375Z,0.07
2018-03-04T03:15:44.289Z,0.08
2018-03-04T03:16:44.201Z,0.04
2018-03-04T03:17:44.114Z,0.05
2018-03-04T03:18:44.033Z,0.05
2018-03-04T03:19:43.942Z,-0.02
2018-03-04T03:20:43.852Z,0.00
2018-03-04T03:21:43.767Z,-0.06
2018-03-04T03:22:43.680Z,-0.10
2018-03-04T03:23:43.620Z,-0.14
2018-03-04T03:24:43.508Z,-0.13
2018-03-04T03:25:43.420Z,-0.21
2018-03-04T03:26:43.333Z,-0.29
2018-03-04T03:27:43.245Z,-0.20
2018-03-04T03:28:43.158Z,-0.38
2018-03-04T03:29:43.071Z,-0.36
2018-03-04T03:30:42.986Z,-0.36
2018-03-04T03:31:42.900Z,-0.39
2018-03-04T03:32:42.812Z,-0.43
2018-03-04T03:33:42.728Z,-0.35
2018-03-04T03:34:42.637Z,-0.38
2018-03-04T03:35:42.602Z,-0.32
2018-03-04T03:36:42.464Z,-0.31
2018-03-04T03:37:42.375Z,-0.25
2018-03-04T03:38:42.289Z,-0.38
2018-03-04T03:39:42.202Z,-0.29
2018-03-04T03:40:42.115Z,-0.36
2018-03-04T03:41:42.027Z,-0.36
2018-03-04T03:42:41.939Z,-0.34
2018-03-04T03:43:41.854Z,-0.34
2018-03-04T03:44:41.765Z,-0.34
2018-03-04T03:45:41.677Z,-0.39
2018-03-04T03:46:41.592Z,-0.34
2018-03-04T03:47:41.504Z,-0.41
2018-03-04T03:48:41.442Z,-0.39
2018-03-04T03:49:41.331Z,-0.35
2018-03-04T03:50:41.244Z,-0.44
2018-03-04T03:51:41.156Z,-0.36
2018-03-04T03:52:41.071Z,-0.32
2018-03-04T03:53:40.987Z,-0.41
2018-03-04T03:54:40.895Z,-0.35
2018-03-04T03:55:40.807Z,-0.46
2018-03-04T03:56:40.721Z,-0.49
2018-03-04T03:57:40.634Z,-0.50
2018-03-04T03:58:40.548Z,-0.49
2018-03-04T03:59:40.460Z,-0.46
2018-03-04T04:00:40.373Z,-0.41
2018-03-04T04:01:40.285Z,-0.47
2018-03-04T04:02:40.197Z,-0.44
2018-03-04T04:03:40.111Z,-0.57
2018-03-04T04:04:40.024Z,-0.56
2018-03-04T04:05:39.934Z,-0.53
2018-03-04T04:06:39.852Z,-0.54
2018-03-04T04:07:39.764Z,-0.54
2018-03-04T04:08:39.675Z,-0.61
2018-03-04T04:09:39.595Z,-0.65
2018-03-04T04:10:39.501Z,-0.65
2018-03-04T04:11:39.413Z,-0.65
2018-03-04T04:12:39.329Z,-0.75
2018-03-04T04:13:39.237Z,-0.70
2018-03-04T04:14:39.152Z,-0.72
2018-03-04T04:15:39.063Z,-0.75
2018-03-04T04:16:38.976Z,-0.72
2018-03-04T04:17:38.887Z,-0.72
2018-03-04T04:18:38.802Z,-0.75
2018-03-04T04:19:38.723Z,-0.68
2018-03-04T04:20:38.631Z,-0.65
2018-03-04T04:21:38.539Z,-0.75
2018-03-04T04:22:38.451Z,-0.78
2018-03-04T04:23:38.363Z,-0.80
2018-03-04T04:24:38.275Z,-0.78
2018-03-04T04:25:38.188Z,-0.72
2018-03-04T04:26:38.104Z,-0.72
2018-03-04T04:27:38.013Z,-0.72
2018-03-04T04:28:37.925Z,-0.74
2018-03-04T04:29:37.840Z,-0.72
2018-03-04T04:30:37.751Z,-0.72
2018-03-04T04:31:37.667Z,-0.77
2018-03-04T04:32:37.575Z,-0.80
2018-03-04T04:33:37.492Z,-0.80
2018-03-04T04:34:37.402Z,-0.82
2018-03-04T04:35:37.312Z,-0.85
2018-03-04T04:36:37.230Z,-0.86
2018-03-04T04:37:37.138Z,-0.75
2018-03-04T04:38:37.053Z,-0.90
2018-03-04T04:39:36.963Z,-0.83
2018-03-04T04:40:36.875Z,-0.83
2018-03-04T04:41:36.789Z,-0.86
2018-03-04T04:42:36.702Z,-0.89
2018-03-04T04:43:36.613Z,-0.85
2018-03-04T04:44:36.530Z,-0.82
2018-03-04T04:45:36.438Z,-0.94
2018-03-04T04:46:36.353Z,-0.93
2018-03-04T04:47:36.267Z,-0.82
2018-03-04T04:48:36.173Z,-0.86
2018-03-04T04:49:36.085Z,-0.89
2018-03-04T04:50:36.002Z,-0.85
2018-03-04T04:51:35.916Z,-0.89
2018-03-04T04:52:35.830Z,-0.85
2018-03-04T04:53:35.739Z,-0.80
2018-03-04T04:54:35.650Z,-0.78
2018-03-04T04:55:35.560Z,-0.85
2018-03-04T04:56:35.473Z,-0.82
2018-03-04T04:57:35.440Z,-0.85
2018-03-04T04:58:35.298Z,-0.70
2018-03-04T04:59:35.212Z,-0.75
2018-03-04T05:00:35.123Z,-0.74
2018-03-04T05:01:35.038Z,-0.67
2018-03-04T05:02:34.949Z,-0.70
2018-03-04T05:03:34.859Z,-0.72
2018-03-04T05:04:34.772Z,-0.77
2018-03-04T05:05:34.684Z,-0.78
2018-03-04T05:06:34.597Z,-0.72
2018-03-04T05:07:34.513Z,-0.82
2018-03-04T05:08:34.420Z,-0.86
2018-03-04T05:09:34.336Z,-0.86
2018-03-04T05:10:34.301Z,-0.86
2018-03-04T05:11:34.160Z,-0.82
2018-03-04T05:12:34.072Z,-0.77
2018-03-04T05:13:33.990Z,-0.78
2018-03-04T05:14:33.898Z,-0.83
2018-03-04T05:15:33.808Z,-0.80
2018-03-04T05:16:33.720Z,-0.85
2018-03-04T05:17:33.634Z,-0.75
2018-03-04T05:18:33.545Z,-0.72
2018-03-04T05:19:33.462Z,-0.80
2018-03-04T05:20:33.376Z,-0.82
2018-03-04T05:21:33.283Z,-0.85
2018-03-04T05:22:33.196Z,-0.72
2018-03-04T05:23:33.108Z,-0.82
2018-03-04T05:24:33.023Z,-0.86
2018-03-04T05:25:32.933Z,-0.80
2018-03-04T05:26:32.846Z,-0.86
2018-03-04T05:27:32.757Z,-0.85
2018-03-04T05:28:32.671Z,-0.75
2018-03-04T05:29:32.585Z,-0.89
2018-03-04T05:30:32.496Z,-0.75
2018-03-04T05:31:32.406Z,-0.86
2018-03-04T05:32:32.324Z,-0.83
2018-03-04T05:33:32.233Z,-0.90
2018-03-04T05:34:32.144Z,-0.97
2018-03-04T05:35:32.057Z,-0.86
2018-03-04T05:36:31.969Z,-0.86
2018-03-04T05:37:31.882Z,-0.83
2018-03-04T05:38:31.795Z,-0.82
2018-03-04T05:39:31.708Z,-0.85
2018-03-04T05:40:31.618Z,-0.90
2018-03-04T05:41:31.534Z,-0.86
2018-03-04T05:42:31.446Z,-0.85
2018-03-04T05:43:31.363Z,-0.93
2018-03-04T05:44:31.271Z,-0.82
2018-03-04T05:45:31.180Z,-0.93
2018-03-04T05:46:31.093Z,-0.90
2018-03-04T05:47:31.007Z,-0.91
2018-03-04T05:48:30.919Z,-0.82
2018-03-04T05:49:30.831Z,-0.83
2018-03-04T05:50:30.743Z,-0.74
2018-03-04T05:51:30.654Z,-0.83
2018-03-04T05:52:30.569Z,-0.71
2018-03-04T05:53:30.480Z,-0.68
2018-03-04T05:54:30.392Z,-0.71
2018-03-04T05:55:30.305Z,-0.72
2018-03-04T05:56:30.219Z,-0.72
2018-03-04T05:57:30.129Z,-0.71
2018-03-04T05:58:30.042Z,-0.71
2018-03-04T05:59:29.954Z,-0.75
2018-03-04T06:00:29.866Z,-0.72
2018-03-04T06:01:29.779Z,-0.82
2018-03-04T06:02:29.693Z,-0.78
2018-03-04T06:03:29.605Z,-0.72
2018-03-04T06:04:29.516Z,-0.72
2018-03-04T06:05:29.429Z,-0.71
2018-03-04T06:06:29.386Z,-0.72
2018-03-04T06:07:29.260Z,-0.74
2018-03-04T06:08:29.175Z,-0.62
2018-03-04T06:09:29.082Z,-0.68
2018-03-04T06:10:28.991Z,-0.67
2018-03-04T06:11:28.905Z,-0.67
2018-03-04T06:12:28.816Z,-0.61
2018-03-04T06:13:28.728Z,-0.68
2018-03-04T06:14:28.646Z,-0.61
2018-03-04T06:15:28.553Z,-0.61
2018-03-04T06:16:28.466Z,-0.54
2018-03-04T06:17:28.380Z,-0.61
2018-03-04T06:18:28.291Z,-0.64
2018-03-04T06:19:28.239Z,-0.57
2018-03-04T06:20:28.114Z,-0.54
2018-03-04T06:21:28.030Z,-0.57
2018-03-04T06:22:27.944Z,-0.54
2018-03-04T06:23:27.859Z,-0.57
2018-03-04T06:24:27.766Z,-0.59
2018-03-04T06:25:27.678Z,-0.65
2018-03-04T06:26:27.602Z,-0.57
2018-03-04T06:27:27.506Z,-0.50
2018-03-04T06:28:27.416Z,-0.56
2018-03-04T06:29:27.329Z,-0.49
2018-03-04T06:30:27.242Z,-0.57
2018-03-04T06:31:27.158Z,-0.53
2018-03-04T06:32:27.067Z,-0.57
2018-03-04T06:33:27.042Z,-0.57
2018-03-04T06:34:26.893Z,-0.57
2018-03-04T06:35:26.803Z,-0.54
2018-03-04T06:36:26.720Z,-0.49
2018-03-04T06:37:26.630Z,-0.59
2018-03-04T06:38:26.546Z,-0.57
2018-03-04T06:39:26.456Z,-0.59
2018-03-04T06:40:26.375Z,-0.53
2018-03-04T06:41:26.281Z,-0.62
2018-03-04T06:42:26.194Z,-0.56
2018-03-04T06:43:26.108Z,-0.57
2018-03-04T06:44:26.023Z,-0.62
2018-03-04T06:45:25.936Z,-0.54
2018-03-04T06:46:25.844Z,-0.57
2018-03-04T06:47:25.764Z,-0.57
2018-03-04T06:48:25.668Z,-0.59
2018-03-04T06:49:25.582Z,-0.57
2018-03-04T06:50:25.493Z,-0.67
2018-03-04T06:51:25.406Z,-0.64
2018-03-04T06:52:25.318Z,-0.65
2018-03-04T06:53:25.232Z,-0.67
2018-03-04T06:54:25.145Z,-0.65
2018-03-04T06:55:25.057Z,-0.61
2018-03-04T06:56:24.969Z,-0.57
2018-03-04T06:57:24.883Z,-0.57
2018-03-04T06:58:24.796Z,-0.57
2018-03-04T06:59:24.707Z,-0.57
2018-03-04T07:00:24.622Z,-0.52
2018-03-04T07:01:24.533Z,-0.49
2018-03-04T07:02:24.447Z,-0.54
2018-03-04T07:03:24.355Z,-0.52
2018-03-04T07:04:24.269Z,-0.56
2018-03-04T07:05:24.181Z,-0.46
2018-03-04T07:06:24.095Z,-0.54
2018-03-04T07:07:24.013Z,-0.53
2018-03-04T07:08:23.921Z,-0.50
2018-03-04T07:09:23.844Z,-0.44
2018-03-04T07:10:23.747Z,-0.47
2018-03-04T07:11:23.659Z,-0.44
2018-03-04T07:12:23.571Z,-0.36
2018-03-04T07:13:23.484Z,-0.39
2018-03-04T07:14:23.395Z,-0.39
2018-03-04T07:15:23.309Z,-0.39
2018-03-04T07:16:23.222Z,-0.32
2018-03-04T07:17:23.136Z,-0.44
2018-03-04T07:18:23.047Z,-0.43
2018-03-04T07:19:22.962Z,-0.41
2018-03-04T07:20:22.877Z,-0.47
2018-03-04T07:21:22.805Z,-0.39
2018-03-04T07:22:23.176Z,-0.50
2018-03-04T07:23:22.619Z,-0.46
2018-03-04T07:24:22.525Z,-0.36
2018-03-04T07:25:22.444Z,-0.36
2018-03-04T07:26:22.350Z,-0.41
2018-03-04T07:27:22.273Z,-0.38
2018-03-04T07:28:22.172Z,-0.39
2018-03-04T07:29:22.090Z,-0.41
2018-03-04T07:30:22.003Z,-0.47
2018-03-04T07:31:21.911Z,-0.49
2018-03-04T07:32:21.825Z,-0.39
2018-03-04T07:33:21.764Z,-0.44
2018-03-04T07:34:21.653Z,-0.50
2018-03-04T07:35:21.565Z,-0.43
2018-03-04T07:36:21.477Z,-0.39
2018-03-04T07:37:21.387Z,-0.39
2018-03-04T07:38:21.302Z,-0.44
2018-03-04T07:39:21.214Z,-0.50
2018-03-04T07:40:21.127Z,-0.43
2018-03-04T07:41:21.040Z,-0.44
2018-03-04T07:42:20.952Z,-0.47
2018-03-04T07:43:20.866Z,-0.38
2018-03-04T07:44:20.780Z,-0.35
2018-03-04T07:45:20.692Z,-0.39
2018-03-04T07:46:20.611Z,-0.41
2018-03-04T07:47:20.524Z,-0.49
2018-03-04T07:48:20.442Z,-0.41
2018-03-04T07:49:20.345Z,-0.46
2018-03-04T07:50:20.259Z,-0.41
2018-03-04T07:51:20.169Z,-0.35
2018-03-04T07:52:20.081Z,-0.46
2018-03-04T07:53:19.992Z,-0.38
2018-03-04T07:54:19.908Z,-0.39
2018-03-04T07:55:19.818Z,-0.31
2018-03-04T07:56:19.730Z,-0.31
2018-03-04T07:57:19.643Z,-0.29
2018-03-04T07:58:19.557Z,-0.20
2018-03-04T07:59:19.474Z,-0.17
2018-03-04T08:00:19.383Z,-0.15
2018-03-04T08:01:19.295Z,-0.14
2018-03-04T08:02:19.209Z,-0.08
2018-03-04T08:03:19.122Z,-0.07
2018-03-04T08:04:19.039Z,0.01
2018-03-04T08:05:18.946Z,-0.03
2018-03-04T08:06:18.860Z,-0.02
2018-03-04T08:07:18.793Z,-0.03
2018-03-04T08:08:18.687Z,-0.10
2018-03-04T08:09:18.601Z,-0.07
2018-03-04T08:10:18.512Z,-0.03
2018-03-04T08:11:18.432Z,-0.06
2018-03-04T08:12:18.337Z,-0.07
2018-03-04T08:13:18.252Z,-0.07
2018-03-04T08:14:18.165Z,-0.02
2018-03-04T08:15:18.077Z,-0.18
2018-03-04T08:16:17.990Z,-0.10
2018-03-04T08:17:17.906Z,-0.10
2018-03-04T08:18:17.816Z,-0.06
2018-03-04T08:19:17.727Z,-0.18
2018-03-04T08:20:17.644Z,-0.02
2018-03-04T08:21:17.555Z,-0.08
2018-03-04T08:22:17.469Z,-0.11
2018-03-04T08:23:17.383Z,-0.10
2018-03-04T08:24:17.294Z,-0.14
2018-03-04T08:25:17.209Z,-0.10
2018-03-04T08:26:17.124Z,-0.14
2018-03-04T08:27:17.036Z,-0.02
2018-03-04T08:28:16.954Z,0.00
2018-03-04T08:29:16.860Z,0.05
2018-03-04T08:30:16.776Z,0.03
2018-03-04T08:31:16.687Z,0.07
2018-03-04T08:32:16.603Z,0.07
2018-03-04T08:33:16.512Z,0.12
2018-03-04T08:34:16.427Z,0.10
2018-03-04T08:35:16.346Z,0.19
2018-03-04T08:36:16.256Z,0.11
2018-03-04T08:37:16.166Z,0.10
2018-03-04T08:38:16.085Z,0.15
2018-03-04T08:39:15.992Z,0.19
2018-03-04T08:40:15.910Z,0.23
2018-03-04T08:41:15.820Z,0.22
2018-03-04T08:42:15.735Z,0.16
2018-03-04T08:43:15.651Z,0.23
2018-03-04T08:44:15.560Z,0.28
2018-03-04T08:45:15.474Z,0.26
2018-03-04T08:46:15.387Z,0.37
2018-03-04T08:47:15.299Z,0.46
2018-03-04T08:48:15.213Z,0.43
2018-03-04T08:49:15.133Z,0.46
2018-03-04T08:50:15.048Z,0.58
2018-03-04T08:51:14.970Z,0.55
2018-03-04T08:52:14.897Z,0.60
2018-03-04T08:53:14.784Z,0.56
2018-03-04T08:54:14.705Z,0.66
2018-03-04T08:56:57.178Z,0.68
2018-03-04T08:57:57.043Z,0.63
2018-03-04T09:00:00.839Z,0.68
2018-03-04T09:01:00.744Z,0.69
2018-03-04T09:03:04.574Z,0.81
2018-03-04T09:04:04.476Z,0.83
2018-03-04T09:06:08.391Z,1.01
2018-03-04T09:07:08.249Z,1.04
2018-03-04T09:09:11.925Z,1.16
2018-03-04T09:10:11.835Z,1.17
2018-03-04T09:11:11.751Z,1.24
2018-03-04T09:12:11.663Z,1.23
2018-03-04T09:13:11.583Z,1.31
2018-03-04T09:14:11.506Z,1.34
2018-03-04T09:15:11.407Z,1.35
2018-03-04T09:16:11.322Z,1.37
2018-03-04T09:17:11.239Z,1.37
2018-03-04T09:18:11.150Z,1.44
2018-03-04T09:19:11.063Z,1.42
2018-03-04T09:20:10.979Z,1.42
2018-03-04T09:21:10.892Z,1.41
2018-03-04T09:22:10.821Z,1.53
2018-03-04T09:23:10.725Z,1.48
2018-03-04T09:24:10.639Z,1.45
2018-03-04T09:25:10.570Z,1.44
2018-03-04T09:26:10.466Z,1.45
2018-03-04T09:27:10.380Z,1.44
2018-03-04T09:28:10.296Z,1.59
2018-03-04T09:29:10.210Z,1.60
2018-03-04T09:30:10.126Z,1.56
2018-03-04T09:31:10.105Z,1.55
2018-03-04T09:32:09.955Z,1.50
2018-03-04T09:33:09.908Z,1.63
2018-03-04T09:34:09.815Z,1.67
2018-03-04T09:35:09.699Z,1.81
2018-03-04T09:36:09.666Z,1.88
2018-03-04T09:37:09.581Z,1.87
2018-03-04T09:38:09.444Z,1.88
2018-03-04T09:39:09.363Z,1.91
2018-03-04T09:40:09.273Z,2.08
2018-03-04T09:41:09.191Z,2.07
2018-03-04T09:42:09.105Z,2.07
2018-03-04T09:43:09.019Z,2.11
2018-03-04T09:44:08.947Z,2.20
2018-03-04T09:45:08.850Z,2.26
2018-03-04T09:46:08.781Z,2.31
2018-03-04T09:47:08.683Z,2.26
2018-03-04T09:48:08.601Z,2.44
2018-03-04T09:49:08.511Z,2.35
2018-03-04T09:50:08.428Z,2.42
2018-03-04T09:51:08.340Z,2.42
2018-03-04T09:52:08.259Z,2.39
2018-03-04T09:53:08.174Z,2.47
2018-03-04T09:54:08.088Z,2.38
2018-03-04T09:55:08.004Z,2.42
2018-03-04T09:56:07.922Z,2.44
2018-03-04T09:57:07.837Z,2.46
2018-03-04T09:58:07.753Z,2.60
2018-03-04T09:59:07.668Z,2.62
2018-03-04T10:00:07.582Z,2.67
2018-03-04T10:01:07.499Z,2.65
2018-03-04T10:02:07.465Z,2.75
2018-03-04T10:03:07.332Z,2.79
2018-03-04T10:04:07.375Z,2.77
2018-03-04T10:05:07.164Z,2.87
2018-03-04T10:06:07.079Z,2.93
2018-03-04T10:07:07.001Z,3.04
2018-03-04T10:08:06.913Z,3.07
2018-03-04T10:09:06.832Z,3.19
2018-03-04T10:10:06.749Z,3.28
2018-03-04T10:11:06.661Z,3.28
2018-03-04T10:12:06.578Z,3.45
2018-03-04T10:13:06.491Z,3.47
2018-03-04T10:14:06.412Z,3.58
2018-03-04T10:15:06.325Z,3.66
2018-03-04T10:16:06.244Z,3.69
2018-03-04T10:17:06.160Z,3.77
2018-03-04T10:18:06.079Z,3.78
2018-03-04T10:19:05.995Z,3.87
2018-03-04T10:20:05.918Z,3.88
2018-03-04T10:21:05.827Z,3.87
2018-03-04T10:22:05.744Z,3.76
2018-03-04T10:23:05.662Z,3.84
2018-03-04T10:24:05.581Z,3.87
2018-03-04T10:25:05.495Z,3.94
2018-03-04T10:26:05.414Z,3.86
2018-03-04T10:27:05.336Z,3.86
2018-03-04T10:28:05.259Z,3.80
2018-03-04T10:29:05.164Z,3.78
2018-03-04T10:30:05.080Z,3.80
2018-03-04T10:31:04.997Z,3.74
2018-03-04T10:32:04.937Z,3.77
2018-03-04T10:33:04.832Z,3.86
2018-03-04T10:34:04.751Z,3.92
2018-03-04T10:35:04.667Z,3.96
2018-03-04T10:36:04.593Z,3.99
2018-03-04T10:37:04.521Z,4.06
2018-03-04T10:38:04.421Z,4.12
2018-03-04T10:39:04.338Z,4.26
2018-03-04T10:40:04.257Z,4.28
2018-03-04T10:41:04.173Z,4.32
2018-03-04T10:42:04.089Z,4.42
2018-03-04T10:43:04.007Z,4.42
2018-03-04T10:44:03.927Z,4.56
2018-03-04T10:45:03.853Z,4.67
2018-03-04T10:46:03.761Z,4.74
2018-03-04T10:47:03.679Z,4.68
2018-03-04T10:48:03.600Z,4.90
2018-03-04T10:49:03.533Z,4.90
2018-03-04T10:50:03.443Z,5.07
2018-03-04T10:51:03.352Z,5.12
2018-03-04T10:52:03.292Z,5.17
2018-03-04T10:53:03.251Z,5.02
2018-03-04T10:54:03.108Z,5.04
2018-03-04T10:55:03.022Z,5.10
2018-03-04T10:56:02.944Z,5.14
2018-03-04T10:57:02.861Z,5.15
2018-03-04T10:58:02.779Z,5.30
2018-03-04T10:59:02.699Z,5.44
2018-03-04T11:00:02.621Z,5.50
2018-03-04T11:01:02.536Z,5.46
2018-03-04T11:02:02.458Z,5.44
2018-03-04T11:03:02.374Z,5.59
2018-03-04T11:04:02.290Z,5.57
2018-03-04T11:05:02.211Z,5.51
2018-03-04T11:06:02.132Z,5.66
2018-03-04T11:07:02.050Z,5.83
2018-03-04T11:08:01.969Z,5.86
2018-03-04T11:09:01.891Z,5.83
2018-03-04T11:10:01.806Z,5.93
2018-03-04T11:11:01.725Z,5.91
2018-03-04T11:12:01.645Z,6.02
2018-03-04T11:13:01.569Z,6.17
2018-03-04T11:14:01.484Z,6.36
2018-03-04T11:15:01.410Z,6.44
2018-03-04T11:16:01.328Z,6.67
2018-03-04T11:17:01.244Z,6.88
2018-03-04T11:18:01.163Z,6.96
2018-03-04T11:19:01.085Z,7.36
2018-03-04T11:20:01.004Z,7.57
2018-03-04T11:21:00.928Z,7.83
2018-03-04T11:22:00.847Z,8.41
2018-03-04T11:23:00.770Z,9.18
2018-03-04T11:24:00.693Z,9.76
2018-03-04T11:25:00.614Z,10.40
2018-03-04T11:26:00.538Z,10.87
2018-03-04T11:27:00.461Z,11.41
2018-03-04T11:28:00.387Z,11.78
2018-03-04T11:29:00.309Z,12.04
2018-03-04T11:30:00.242Z,11.78
2018-03-04T11:31:00.159Z,12.37
2018-03-04T11:32:00.085Z,12.82
2018-03-04T11:33:00.011Z,13.13
2018-03-04T11:33:59.964Z,13.13
2018-03-04T11:34:59.865Z,13.01
2018-03-04T11:35:59.808Z,13.16
2018-03-04T11:36:59.715Z,13.50
2018-03-04T11:37:59.644Z,13.35
2018-03-04T11:38:59.572Z,13.31
2018-03-04T11:39:59.499Z,13.75
2018-03-04T11:40:59.427Z,14.00
2018-03-04T11:41:59.353Z,14.44
2018-03-04T11:42:59.281Z,14.68
2018-03-04T11:43:59.236Z,15.02
2018-03-04T11:44:59.136Z,15.59
2018-03-04T11:45:59.066Z,15.35
2018-03-04T11:46:58.997Z,15.72
2018-03-04T11:47:58.927Z,15.51
2018-03-04T11:48:58.853Z,15.17
2018-03-04T11:49:58.782Z,15.19
2018-03-04T11:50:58.715Z,15.14
2018-03-04T11:51:58.659Z,14.86
2018-03-04T11:52:58.572Z,14.48
2018-03-04T11:53:58.504Z,14.63
2018-03-04T11:54:58.435Z,14.97
2018-03-04T11:55:58.367Z,15.17
2018-03-04T11:56:58.292Z,15.25
2018-03-04T11:57:58.228Z,15.67
2018-03-04T11:58:58.157Z,16.24
2018-03-04T11:59:58.090Z,16.51
2018-03-04T12:00:58.016Z,16.76
2018-03-04T12:01:57.947Z,17.36
2018-03-04T12:02:57.879Z,17.82
2018-03-04T12:03:57.845Z,17.08
2018-03-04T12:04:57.742Z,15.57
2018-03-04T12:05:57.722Z,14.96
2018-03-04T12:06:57.613Z,15.25
2018-03-04T12:07:57.580Z,15.65
2018-03-04T12:08:57.475Z,15.83
2018-03-04T12:09:57.404Z,16.31
2018-03-04T12:10:57.334Z,16.66
2018-03-04T12:11:57.268Z,17.12
2018-03-04T12:12:57.203Z,16.93
2018-03-04T12:13:57.133Z,16.54
2018-03-04T12:14:57.067Z,16.24
2018-03-04T12:15:56.998Z,15.79
2018-03-04T12:16:56.930Z,16.08
2018-03-04T12:17:56.864Z,15.95
2018-03-04T12:18:56.795Z,16.05
2018-03-04T12:19:56.732Z,16.28
2018-03-04T12:20:56.660Z,17.16
2018-03-04T12:21:56.594Z,17.67
2018-03-04T12:22:56.530Z,18.20
2018-03-04T12:23:56.515Z,17.95
2018-03-04T12:24:56.392Z,18.43
2018-03-04T12:25:56.324Z,18.78
2018-03-04T12:26:56.258Z,18.90
2018-03-04T12:27:56.192Z,19.12
2018-03-04T12:28:56.126Z,18.70
2018-03-04T12:29:56.098Z,18.96
2018-03-04T12:30:56.000Z,19.45
2018-03-04T12:31:55.933Z,19.74
2018-03-04T12:32:55.866Z,20.07
2018-03-04T12:33:55.797Z,20.37
2018-03-04T12:34:55.731Z,20.50
2018-03-04T12:35:55.667Z,19.99
2018-03-04T12:36:55.605Z,19.96
2018-03-04T12:37:55.537Z,19.94
2018-03-04T12:38:55.470Z,19.94
2018-03-04T12:39:55.405Z,19.81
2018-03-04T12:40:55.342Z,19.96
2018-03-04T12:41:55.284Z,20.51
2018-03-04T12:42:55.212Z,20.88
2018-03-04T12:43:55.149Z,20.77
2018-03-04T12:44:55.097Z,20.32
2018-03-04T12:45:55.018Z,19.84
2018-03-04T12:46:54.956Z,19.22
2018-03-04T12:47:54.891Z,19.39
2018-03-04T12:48:54.825Z,19.59
2018-03-04T12:49:54.761Z,19.86
2018-03-04T12:50:54.698Z,20.07
2018-03-04T12:51:54.635Z,20.10
2018-03-04T12:52:54.568Z,20.26
2018-03-04T12:53:54.505Z,20.24
2018-03-04T12:54:54.444Z,20.56
2018-03-04T12:55:54.383Z,20.80
2018-03-04T12:56:54.315Z,20.74
2018-03-04T12:57:54.251Z,20.58
2018-03-04T12:58:54.188Z,20.51
2018-03-04T12:59:54.123Z,20.69
2018-03-04T13:00:54.067Z,20.90
2018-03-04T13:01:53.998Z,21.12
2018-03-04T13:02:53.936Z,21.33
2018-03-04T13:03:53.876Z,21.33
2018-03-04T13:04:53.807Z,21.40
2018-03-04T13:05:53.749Z,21.60
2018-03-04T13:06:53.729Z,21.76
2018-03-04T13:07:53.623Z,21.85
2018-03-04T13:08:53.560Z,21.89